createdAt,value
2023-04-09T00:02:58.084Z,100492.47
2023-04-09T00:06:02.884Z,100494.84
2023-04-09T00:09:07.560Z,100520.41
2023-04-09T00:12:12.004Z,100520.47
2023-04-09T00:15:27.876Z,100507.28
2023-04-09T00:18:35.014Z,100497.75
2023-04-09T00:21:39.383Z,100490.75
2023-04-09T00:24:46.136Z,100495.13
2023-04-09T00:27:49.842Z,100503.94
2023-04-09T00:30:58.276Z,100497.00
2023-04-09T00:34:03.798Z,100508.41
2023-04-09T00:37:07.777Z,100502.28
2023-04-09T00:40:12.035Z,100497.00
2023-04-09T00:43:16.266Z,100493.44
2023-04-09T00:46:20.323Z,100493.44
2023-04-09T00:49:27.164Z,100475.66
2023-04-09T00:52:31.903Z,100477.16
2023-04-09T00:55:37.096Z,100479.56
2023-04-09T00:58:44.302Z,100501.97
2023-04-09T01:01:48.579Z,100468.06
2023-04-09T01:04:53.257Z,100485.16
2023-04-09T01:08:18.673Z,100468.94
2023-04-09T01:11:37.723Z,100481.06
2023-04-09T01:15:00.178Z,100477.06
2023-04-09T01:18:09.254Z,100469.66
2023-04-09T01:21:24.376Z,100461.91
2023-04-09T01:24:53.873Z,100467.69
2023-04-09T01:28:28.622Z,100457.13
2023-04-09T01:31:39.296Z,100456.56
2023-04-09T01:34:46.613Z,100442.31
2023-04-09T01:37:52.110Z,100454.59
2023-04-09T01:40:58.123Z,100422.69
2023-04-09T01:44:04.419Z,100436.00
2023-04-09T01:47:10.126Z,100442.56
2023-04-09T01:50:14.420Z,100431.22
2023-04-09T01:53:18.733Z,100439.53
2023-04-09T01:56:22.686Z,100425.97
2023-04-09T01:59:26.755Z,100417.59
2023-04-09T02:02:41.641Z,100387.50
2023-04-09T02:05:50.613Z,100397.50
2023-04-09T02:08:55.836Z,100395.59
2023-04-09T02:12:03.398Z,100400.47
2023-04-09T02:15:08.744Z,100386.69
2023-04-09T02:18:28.151Z,100386.25
2023-04-09T02:21:33.488Z,100384.41
2023-04-09T02:24:38.469Z,100372.22
2023-04-09T02:27:42.143Z,100375.56
2023-04-09T02:30:46.424Z,100346.56
2023-04-09T02:33:50.376Z,100371.25
2023-04-09T02:36:54.286Z,100361.75
2023-04-09T02:39:58.384Z,100357.19
2023-04-09T02:43:02.631Z,100353.78
2023-04-09T02:46:06.788Z,100321.31
2023-04-09T02:49:11.939Z,100333.78
2023-04-09T02:52:15.823Z,100319.06
2023-04-09T02:55:21.269Z,100318.75
2023-04-09T02:58:25.034Z,100292.16
2023-04-09T03:01:29.057Z,100314.28
2023-04-09T03:04:32.999Z,100305.59
2023-04-09T03:07:36.948Z,100304.97
2023-04-09T03:10:41.468Z,100290.84
2023-04-09T03:13:45.382Z,100288.28
2023-04-09T03:16:49.331Z,100262.97
2023-04-09T03:19:53.336Z,100251.13
2023-04-09T03:22:58.520Z,100236.41
2023-04-09T03:26:14.104Z,100241.66
2023-04-09T03:29:24.753Z,100249.81
2023-04-09T03:32:29.238Z,100238.81
2023-04-09T03:35:33.342Z,100211.84
2023-04-09T03:38:38.402Z,100224.13
2023-04-09T03:41:54.872Z,100234.69
2023-04-09T03:44:59.176Z,100219.84
2023-04-09T03:48:10.721Z,100197.47
2023-04-09T03:51:19.921Z,100209.50
2023-04-09T03:54:31.728Z,100136.22
2023-04-09T03:57:37.500Z,100183.38
2023-04-09T04:00:45.876Z,100207.63
2023-04-09T04:04:08.081Z,100200.59
2023-04-09T04:07:27.283Z,100177.94
2023-04-09T04:10:39.071Z,100177.91
2023-04-09T04:13:44.495Z,100184.09
2023-04-09T04:16:49.113Z,100151.03
2023-04-09T04:19:57.103Z,100157.69
2023-04-09T04:23:01.975Z,100151.38
2023-04-09T04:26:13.462Z,100144.88
2023-04-09T04:35:29.114Z,100144.63
2023-04-09T04:38:38.350Z,100142.13
2023-04-09T04:41:49.481Z,100132.28
2023-04-09T04:45:00.286Z,100104.69
2023-04-09T04:48:20.216Z,100111.22
2023-04-09T04:51:24.904Z,100118.56
2023-04-09T04:54:47.417Z,100096.63
2023-04-09T04:57:57.111Z,100048.28
2023-04-09T05:01:05.784Z,100098.53
2023-04-09T05:04:10.415Z,100099.91
2023-04-09T05:07:15.202Z,100101.06
2023-04-09T05:10:26.298Z,100082.91
2023-04-09T05:13:32.249Z,100077.97
2023-04-09T05:16:42.405Z,100082.34
2023-04-09T05:19:53.528Z,100083.88
2023-04-09T05:23:05.110Z,100073.41
2023-04-09T05:26:15.835Z,100053.25
2023-04-09T05:33:26.002Z,100055.09
2023-04-09T05:36:33.003Z,100039.13
2023-04-09T05:39:38.832Z,100041.97
2023-04-09T05:42:43.675Z,100032.38
2023-04-09T05:45:59.294Z,100013.25
2023-04-09T05:49:05.519Z,100022.25
2023-04-09T05:52:12.788Z,100037.25
2023-04-09T05:55:18.423Z,100034.19
2023-04-09T05:58:30.570Z,100018.88
2023-04-09T06:01:36.299Z,100012.09
2023-04-09T06:04:41.014Z,100004.16
2023-04-09T06:07:45.502Z,100008.56
2023-04-09T06:10:51.452Z,99999.66
2023-04-09T06:13:55.556Z,100003.00
2023-04-09T06:17:01.284Z,99975.16
2023-04-09T06:20:06.292Z,99969.31
2023-04-09T06:23:10.742Z,99969.66
2023-04-09T06:26:15.570Z,99961.13
2023-04-09T06:29:19.857Z,99978.38
2023-04-09T06:32:24.367Z,99964.00
2023-04-09T06:35:28.997Z,99963.31
2023-04-09T06:38:33.584Z,99970.00
2023-04-09T06:41:38.131Z,99960.38
2023-04-09T06:44:51.479Z,99953.06
2023-04-09T06:47:56.405Z,99945.47
2023-04-09T06:51:00.832Z,99942.91
2023-04-09T06:54:05.506Z,99935.72
2023-04-09T06:57:10.285Z,99946.84
2023-04-09T07:00:15.463Z,99946.91
2023-04-09T07:03:20.374Z,99951.34
2023-04-09T07:06:24.830Z,99930.66
2023-04-09T07:09:29.487Z,99922.34
2023-04-09T07:12:38.150Z,99937.50
2023-04-09T07:15:42.835Z,99925.75
2023-04-09T07:18:48.011Z,99921.72
2023-04-09T07:21:52.820Z,99903.34
2023-04-09T07:24:57.639Z,99925.06
2023-04-09T07:28:02.451Z,99914.34
2023-04-09T07:31:07.008Z,99918.84
2023-04-09T07:34:11.880Z,99918.53
2023-04-09T07:37:16.275Z,99900.75
2023-04-09T07:40:24.087Z,99914.28
2023-04-09T07:43:28.615Z,99907.69
2023-04-09T07:46:33.148Z,99902.72
2023-04-09T07:49:38.974Z,99872.59
2023-04-09T07:52:44.052Z,99912.81
2023-04-09T07:55:48.363Z,99908.97
2023-04-09T07:58:52.934Z,99890.88
2023-04-09T08:01:58.003Z,99899.50
2023-04-09T08:05:03.327Z,99892.06
2023-04-09T08:08:08.251Z,99899.50
2023-04-09T08:11:12.735Z,99883.31
2023-04-09T08:14:18.390Z,99906.69
2023-04-09T08:17:23.068Z,99879.97
2023-04-09T08:20:28.766Z,99874.91
2023-04-09T08:23:32.829Z,99920.47
2023-04-09T08:26:37.536Z,99915.63
2023-04-09T08:29:43.470Z,99908.50
2023-04-09T08:32:48.385Z,99915.16
2023-04-09T08:35:53.155Z,99909.53
2023-04-09T08:38:57.338Z,99916.59
2023-04-09T08:42:04.644Z,99919.38
2023-04-09T08:45:10.314Z,99895.38
2023-04-09T08:48:15.570Z,99928.38
2023-04-09T08:51:24.811Z,99917.84
2023-04-09T08:54:29.558Z,99902.25
2023-04-09T08:57:42.465Z,99923.69
2023-04-09T09:00:46.994Z,99898.22
2023-04-09T09:04:02.869Z,99909.09
2023-04-09T09:07:08.103Z,99898.75
2023-04-09T09:10:12.501Z,99906.06
2023-04-09T09:13:31.982Z,99876.19
2023-04-09T09:16:40.683Z,99919.13
2023-04-09T09:19:44.738Z,99900.22
2023-04-09T09:22:54.923Z,99920.03
2023-04-09T09:26:00.300Z,99920.22
2023-04-09T09:29:06.594Z,99893.13
2023-04-09T09:32:16.291Z,99916.47
2023-04-09T09:35:22.375Z,99890.84
2023-04-09T09:38:26.940Z,99911.22
2023-04-09T09:41:32.554Z,99912.00
2023-04-09T09:44:36.781Z,99911.28
2023-04-09T09:47:42.604Z,99911.47
2023-04-09T09:50:50.644Z,99912.66
2023-04-09T09:53:58.152Z,99909.13
2023-04-09T09:57:09.034Z,99914.59
2023-04-09T10:00:18.181Z,99921.69
2023-04-09T10:03:36.574Z,99925.56
2023-04-09T10:06:46.313Z,99928.22
2023-04-09T10:09:53.149Z,99929.78
2023-04-09T10:12:58.836Z,99928.69
2023-04-09T10:16:03.276Z,99930.03
2023-04-09T10:19:12.354Z,99926.41
2023-04-09T10:22:23.399Z,99928.78
2023-04-09T10:25:29.332Z,99925.66
2023-04-09T10:28:33.366Z,99937.31
2023-04-09T10:31:50.710Z,99937.38
2023-04-09T10:35:00.214Z,99932.47
2023-04-09T10:38:04.577Z,99925.38
2023-04-09T10:41:17.812Z,99933.31
2023-04-09T10:44:23.835Z,99944.63
2023-04-09T10:47:39.599Z,99927.06
2023-04-09T10:50:45.776Z,99939.13
2023-04-09T10:53:55.092Z,99883.81
2023-04-09T10:57:14.666Z,99937.19
2023-04-09T11:00:19.592Z,99949.09
2023-04-09T11:03:30.812Z,99937.66
2023-04-09T11:06:38.516Z,99872.78
2023-04-09T11:09:43.388Z,99943.97
2023-04-09T11:12:49.718Z,99952.59
2023-04-09T11:15:56.665Z,99936.13
2023-04-09T11:19:01.414Z,99947.91
2023-04-09T11:22:07.717Z,99950.75
2023-04-09T11:25:18.658Z,99957.09
2023-04-09T11:28:24.241Z,99923.06
2023-04-09T11:31:30.183Z,99940.38
2023-04-09T11:34:34.782Z,99937.19
2023-04-09T11:37:39.541Z,99932.16
2023-04-09T11:40:49.300Z,99937.63
2023-04-09T11:43:54.431Z,99907.91
2023-04-09T11:47:00.723Z,99932.50
2023-04-09T11:50:08.654Z,99933.31
2023-04-09T11:53:23.722Z,99921.06
2023-04-09T11:56:33.895Z,99935.03
2023-04-09T11:59:40.632Z,99880.91
2023-04-09T12:03:00.434Z,99917.56
2023-04-09T12:06:06.499Z,99914.88
2023-04-09T12:09:14.997Z,99910.69
2023-04-09T12:12:25.319Z,99917.69
2023-04-09T12:15:37.029Z,99907.91
2023-04-09T12:18:42.363Z,99902.13
2023-04-09T12:21:59.215Z,99927.47
2023-04-09T12:25:05.374Z,99925.06
2023-04-09T12:28:17.612Z,99919.56
2023-04-09T12:31:22.218Z,99924.81
2023-04-09T12:34:28.102Z,99923.22
2023-04-09T12:37:32.549Z,99923.44
2023-04-09T12:40:37.844Z,99917.50
2023-04-09T12:43:44.244Z,99918.25
2023-04-09T12:46:48.786Z,99885.81
2023-04-09T12:49:53.195Z,99896.38
2023-04-09T12:52:57.865Z,99901.50
2023-04-09T12:56:02.597Z,99871.22
2023-04-09T12:59:07.244Z,99853.00
2023-04-09T13:02:12.196Z,99875.56
2023-04-09T13:05:19.189Z,99867.25
2023-04-09T13:08:23.760Z,99863.50
2023-04-09T13:11:28.399Z,99861.22
2023-04-09T13:14:32.979Z,99875.22
2023-04-09T13:17:38.426Z,99870.03
2023-04-09T13:20:43.111Z,99859.34
2023-04-09T13:23:47.124Z,99876.69
2023-04-09T13:26:52.206Z,99794.94
2023-04-09T13:29:56.781Z,99879.91
2023-04-09T13:33:01.550Z,99850.75
2023-04-09T13:36:07.590Z,99839.34
2023-04-09T13:39:12.464Z,99859.19
2023-04-09T13:42:17.925Z,99887.03
2023-04-09T13:45:24.727Z,99850.94
2023-04-09T13:48:29.392Z,99862.38
2023-04-09T13:51:35.094Z,99855.00
2023-04-09T13:54:39.678Z,99849.81
2023-04-09T13:57:45.539Z,99866.44
2023-04-09T14:00:49.625Z,99868.22
2023-04-09T14:03:54.400Z,99858.19
2023-04-09T14:06:59.076Z,99849.69
2023-04-09T14:10:03.635Z,99862.97
2023-04-09T14:13:11.317Z,99865.56
2023-04-09T14:16:15.887Z,99841.75
2023-04-09T14:19:20.117Z,99836.63
2023-04-09T14:22:24.094Z,99849.47
2023-04-09T14:25:28.374Z,99824.66
2023-04-09T14:28:33.321Z,99838.31
2023-04-09T14:31:37.792Z,99818.88
2023-04-09T14:34:42.433Z,99824.34
2023-04-09T14:37:47.807Z,99823.03
2023-04-09T14:40:52.967Z,99838.63
2023-04-09T14:43:57.452Z,99832.47
2023-04-09T14:47:02.035Z,99773.81
2023-04-09T14:50:06.613Z,99831.56
2023-04-09T14:53:11.554Z,99822.19
2023-04-09T14:56:16.369Z,99784.16
2023-04-09T14:59:21.084Z,99804.91
2023-04-09T15:02:25.733Z,99777.34
2023-04-09T15:05:30.648Z,99829.34
2023-04-09T15:08:35.225Z,99794.19
2023-04-09T15:11:39.556Z,99817.75
2023-04-09T15:14:44.192Z,99729.38
2023-04-09T15:17:48.924Z,99788.94
2023-04-09T15:20:53.593Z,99802.53
2023-04-09T15:23:59.730Z,99814.50
2023-04-09T15:27:04.381Z,99807.28
2023-04-09T15:30:09.342Z,99788.13
2023-04-09T15:33:14.575Z,99789.56
2023-04-09T15:36:19.098Z,99804.25
2023-04-09T15:39:29.038Z,99782.00
2023-04-09T15:42:33.528Z,99790.38
2023-04-09T15:45:38.097Z,99788.44
2023-04-09T15:48:42.647Z,99810.16
2023-04-09T15:51:46.682Z,99802.13
2023-04-09T15:54:50.725Z,99801.13
2023-04-09T15:57:56.001Z,99778.91
2023-04-09T16:01:00.031Z,99767.22
2023-04-09T16:04:05.875Z,99782.97
2023-04-09T16:07:11.660Z,99791.19
2023-04-09T16:10:15.477Z,99786.63
2023-04-09T16:13:19.378Z,99784.72
2023-04-09T16:16:24.379Z,99779.56
2023-04-09T16:19:29.178Z,99771.84
2023-04-09T16:22:34.768Z,99771.56
2023-04-09T16:25:39.134Z,99767.47
2023-04-09T16:28:43.625Z,99773.53
2023-04-09T16:31:47.661Z,99767.94
2023-04-09T16:34:52.679Z,99762.91
2023-04-09T16:37:57.529Z,99765.41
2023-04-09T16:41:02.273Z,99757.06
2023-04-09T16:44:07.398Z,99764.16
2023-04-09T16:47:11.472Z,99755.06
2023-04-09T16:50:16.317Z,99758.72
2023-04-09T16:53:21.365Z,99751.25
2023-04-09T16:56:26.206Z,99747.03
2023-04-09T16:59:30.583Z,99744.31
2023-04-09T17:02:35.433Z,99740.06
2023-04-09T17:05:39.472Z,99730.16
2023-04-09T17:08:43.797Z,99715.66
2023-04-09T17:11:48.502Z,99696.97
2023-04-09T17:14:52.469Z,99720.28
2023-04-09T17:17:59.110Z,99705.72
2023-04-09T17:21:03.640Z,99696.16
2023-04-09T17:24:08.025Z,99694.84
2023-04-09T17:27:12.299Z,99701.22
2023-04-09T17:30:17.100Z,99719.94
2023-04-09T17:33:21.083Z,99713.44
2023-04-09T17:36:25.532Z,99706.56
2023-04-09T17:39:32.325Z,99706.22
2023-04-09T17:42:36.215Z,99712.94
2023-04-09T17:45:40.663Z,99702.88
2023-04-09T17:48:45.763Z,99721.00
2023-04-09T17:51:49.823Z,99705.53
2023-04-09T17:54:54.416Z,99710.94
2023-04-09T17:57:58.989Z,99711.28
2023-04-09T18:01:03.104Z,99698.16
2023-04-09T18:04:07.778Z,99686.25
2023-04-09T18:07:12.728Z,99661.16
2023-04-09T18:13:53.763Z,99699.19
2023-04-09T18:16:58.253Z,99703.75
2023-04-09T18:20:02.410Z,99685.66
2023-04-09T18:23:06.285Z,99689.72
2023-04-09T18:26:10.608Z,99689.88
2023-04-09T18:29:14.649Z,99692.09
2023-04-09T18:32:20.386Z,99688.78
2023-04-09T18:35:24.262Z,99692.28
2023-04-09T18:38:30.135Z,99688.03
2023-04-09T18:41:34.763Z,99691.47
2023-04-09T18:44:39.630Z,99697.88
2023-04-09T18:47:43.706Z,99682.97
2023-04-09T18:50:48.021Z,99687.22
2023-04-09T18:53:54.652Z,99700.41
2023-04-09T18:57:01.126Z,99690.91
2023-04-09T19:00:06.013Z,99693.34
2023-04-09T19:03:13.020Z,99687.44
2023-04-09T19:06:19.207Z,99699.22
2023-04-09T19:09:26.290Z,99699.97
2023-04-09T19:12:30.534Z,99680.69
2023-04-09T19:15:34.859Z,99675.06
2023-04-09T19:18:39.562Z,99646.91
2023-04-09T19:21:44.001Z,99682.09
2023-04-09T19:24:48.421Z,99687.38
2023-04-09T19:27:54.975Z,99674.66
2023-04-09T19:31:00.118Z,99662.81
2023-04-09T19:34:06.947Z,99680.84
2023-04-09T19:37:12.514Z,99676.06
2023-04-09T19:40:18.743Z,99676.50
2023-04-09T19:43:23.391Z,99671.13
2023-04-09T19:46:28.122Z,99645.84
2023-04-09T19:49:32.609Z,99668.50
2023-04-09T19:52:38.569Z,99668.56
2023-04-09T19:55:42.921Z,99661.16
2023-04-09T19:58:47.438Z,99681.41
2023-04-09T20:01:52.134Z,99669.88
2023-04-09T20:04:56.595Z,99665.53
2023-04-09T20:08:01.666Z,99662.75
2023-04-09T20:11:06.604Z,99650.44
2023-04-09T20:14:12.746Z,99661.03
2023-04-09T20:17:20.567Z,99619.41
2023-04-09T20:20:24.994Z,99666.44
2023-04-09T20:23:29.953Z,99664.75
2023-04-09T20:26:34.654Z,99693.00
2023-04-09T20:29:39.788Z,99690.59
2023-04-09T20:32:44.369Z,99687.13
2023-04-09T20:35:50.588Z,99700.50
2023-04-09T20:38:55.792Z,99664.84
2023-04-09T20:41:59.871Z,99699.44
2023-04-09T20:45:03.926Z,99697.72
2023-04-09T20:48:07.929Z,99676.66
2023-04-09T20:51:12.799Z,99685.47
2023-04-09T20:54:18.743Z,99717.19
2023-04-09T20:57:23.590Z,99705.69
2023-04-09T21:00:37.241Z,99677.81
2023-04-09T21:03:42.018Z,99739.34
2023-04-09T21:06:46.798Z,99727.19
2023-04-09T21:09:51.692Z,99736.59
2023-04-09T21:12:56.072Z,99727.16
2023-04-09T21:15:59.934Z,99740.13
2023-04-09T21:19:07.852Z,99741.81
2023-04-09T21:22:12.509Z,99702.41
2023-04-09T21:25:16.737Z,99744.56
2023-04-09T21:28:20.859Z,99747.28
2023-04-09T21:31:25.314Z,99728.38
2023-04-09T21:34:29.883Z,99742.63
2023-04-09T21:37:35.193Z,99745.16
2023-04-09T21:40:40.057Z,99736.50
2023-04-09T21:43:44.575Z,99745.47
2023-04-09T21:46:48.827Z,99753.28
2023-04-09T21:49:53.317Z,99747.91
2023-04-09T21:52:57.580Z,99760.47
2023-04-09T21:56:04.704Z,99754.47
2023-04-09T21:59:09.406Z,99746.38
2023-04-09T22:02:13.907Z,99749.44
2023-04-09T22:05:18.510Z,99748.69
2023-04-09T22:08:22.868Z,99742.81
2023-04-09T22:11:28.943Z,99749.75
2023-04-09T22:14:33.648Z,99746.00
2023-04-09T22:17:38.140Z,99743.31
2023-04-09T22:20:43.153Z,99744.41
2023-04-09T22:23:47.683Z,99774.16
2023-04-09T22:26:51.764Z,99774.09
2023-04-09T22:29:56.768Z,99748.72
2023-04-09T22:33:00.891Z,99721.09
2023-04-09T22:36:05.374Z,99720.03
2023-04-09T22:39:09.894Z,99748.50
2023-04-09T22:42:14.268Z,99760.31
2023-04-09T22:45:18.594Z,99743.41
2023-04-09T22:48:23.740Z,99738.97
2023-04-09T22:51:27.832Z,99764.41
2023-04-09T22:54:32.514Z,99761.72
2023-04-09T22:57:39.155Z,99747.31
2023-04-09T23:00:43.440Z,99747.00
2023-04-09T23:03:47.755Z,99741.94
2023-04-09T23:06:52.527Z,99744.66
2023-04-09T23:09:57.090Z,99740.06
2023-04-09T23:13:01.707Z,99733.97
2023-04-09T23:16:10.300Z,99739.84
2023-04-09T23:19:14.363Z,99719.56
2023-04-09T23:22:18.637Z,99730.16
2023-04-09T23:25:23.389Z,99678.06
2023-04-09T23:28:40.660Z,99716.38
2023-04-09T23:31:45.103Z,99713.84
2023-04-09T23:34:49.525Z,99715.19
2023-04-09T23:38:49.466Z,99713.47
2023-04-09T23:43:07.898Z,99720.25
2023-04-09T23:47:07.169Z,99705.31
2023-04-09T23:51:25.199Z,99694.81
2023-04-09T23:55:43.422Z,99699.97
